Latest Coastal Weather Observations for Gabo Island

IDV60701

Issued at 6:41 am EST Sunday 1 May 2016 (issued every 10 minutes, with the page automatically refreshed every 10 minutes)

About coastal observations | Map of coastal stations | Coastal observations for VIC | Marine services | Other Formats
Station Details ID: 084016 Name: GABO ISLAND LIGHTHOUSE Lat: -37.57 Lon: 149.92 Height: 15.2 m
Data from the previous 72 hours. | See also: Recent months at Gabo Island
Date/Time
EST
Temp

°C
Wind Pressure Rain
since 9am
mm
Weather Cloud Vis
km
Sea
Height
m
Swell
Dir
 
Speed
knots
Gust
knots
hPa Trend Height
m
Period
s
Dir
01/06:30am 17.5 NNE 12 15 1005.4 - 0.4 - - - - - - -
01/06:00am 18.0 NE 9 14 1006.3 - 0.2 - - - - - - -
01/05:30am 17.1 N 9 11 1006.6 - 0.2 - - - - - - -
01/05:00am 17.6 NNE 8 11 1006.4 - 0.2 - - - - - - -
01/04:30am 17.0 NNE 6 13 1006.9 - 0.2 - - - - - - -
01/04:00am 16.9 N 9 10 1007.4 - 0.2 - - - - - - -
01/03:30am 16.8 NNE 7 8 1007.6 - 0.2 - - - - - - -
01/03:00am 16.5 N 4 5 1008.9 - 0.2 Fine Partly cloudy 30 <0.5 0.5 10 NE
01/02:30am 16.1 N 7 8 1009.2 - 0.2 - - - - - - -
01/02:00am 17.2 N 8 10 1009.2 - 0.2 - - - - - - -
01/01:30am 17.2 N 8 10 1009.8 - 0.2 - - - - - - -
01/01:00am 17.7 N 9 10 1010.5 - 0.2 - - - - - - -
01/12:30am 17.8 N 10 13 1011.1 - 0.2 - - - - - - -
01/12:00am 17.4 N 9 10 1011.6 - 0.2 - - - - - - -
 
Date/Time
EST
Temp

°C
Wind Pressure Rain
since 9am
mm
Weather Cloud Vis
km
Sea
Height
m
Swell
Dir
 
Speed
knots
Gust
knots
hPa Trend Height
m
Period
s
Dir
30/11:30pm 17.2 NNE 4 7 1011.9 - 0.2 - - - - - - -
30/11:00pm 17.5 WSW 1 4 1012.2 - 0.2 - - - - - - -
30/10:30pm 17.6 NNW 6 9 1012.7 - 0.2 - - - - - - -
30/10:00pm 17.7 N 7 9 1012.9 - 0.2 - - - - - - -
30/09:30pm 18.8 NE 9 11 1012.9 - 0.2 - - - - - - -
30/09:00pm 19.2 NE 7 8 1013.1 - 0.2 Fine Mostly clear 30 <0.5 0.5 10 NE
30/08:30pm 19.7 NNE 7 10 1013.1 - 0.2 - - - - - - -
30/08:00pm 20.7 N 7 11 1013.5 - 0.2 - - - - - - -
30/07:30pm 19.0 N 10 12 1013.6 - 0.2 - - - - - - -
30/07:00pm 19.4 NNE 12 14 1013.4 - 0.2 - - - - - - -
30/06:30pm 19.5 NNE 11 11 1013.6 - 0.2 - - - - - - -
30/06:00pm 19.7 ENE 10 11 1013.6 - 0.2 - - - - - - -
30/05:30pm 19.7 NE 9 10 1013.6 - 0.2 - - - - - - -
30/05:00pm 20.0 NE 8 9 1013.6 - 0.2 - - - - - - -
30/04:30pm 20.2 NNE 10 12 1013.5 - 0.2 - - - - - - -
30/04:00pm 20.1 NE 11 12 1013.4 - 0.2 - - - - - - -
30/03:30pm 20.3 NE 9 10 1013.6 - 0.2 - - - - - - -
30/03:00pm 21.2 NE 9 10 1013.6 - 0.2 Fine Partly cloudy 30 <0.5 1.0 10 NE
30/02:30pm 20.8 ENE 8 9 1013.8 - 0.2 - - - - - - -
30/02:00pm 20.7 ENE 7 8 1013.9 - 0.2 - - - - - - -
30/01:30pm 21.5 ENE 7 8 1014.0 - 0.2 - - - - - - -
30/01:00pm 21.9 E 5 7 1014.2 - 0.2 - - - - - - -
30/12:30pm 21.8 E 5 6 1014.6 - 0.0 - - - - - - -
30/12:00pm 21.3 E 3 6 1014.9 - 0.0 - - - - - - -
30/11:30am 20.5 ENE 4 5 1015.4 - 0.0 - - - - - - -
30/11:00am 21.1 ENE 4 5 1015.9 - 0.0 - - - - - - -
30/10:30am 21.3 ENE 3 4 1016.1 - 0.0 - - - - - - -
30/10:00am 20.3 ENE 3 4 1016.2 - 0.0 - - - - - - -
30/09:30am 19.4 NE 2 4 1016.4 - 0.0 - - - - - - -
30/09:00am 19.7 WNW 2 4 1016.4 - 0.6 Fine Mostly cloudy 30 <0.5 1.0 10 NE
30/08:30am 18.8 W 2 4 1016.4 - 0.6 - - - - - - -
30/08:00am 18.9 NNE 1 3 1016.2 - 0.6 - - - - - - -
30/07:30am 18.2 ENE 1 3 1015.9 - 0.6 - - - - - - -
30/07:00am 17.9 ENE 3 4 1015.5 - 0.6 - - - - - - -
30/06:30am 17.6 WNW 5 6 1015.2 - 0.6 - - - - - - -
30/06:00am 17.7 W 5 6 1015.1 - 0.6 - - - - - - -
30/05:30am 17.5 W 4 5 1014.9 - 0.6 - - - - - - -
30/05:00am 18.0 CALM 0 0 1014.8 - 0.6 - - - - - - -
30/04:30am 17.8 CALM 0 0 1014.4 - 0.6 - - - - - - -
30/04:00am 17.7 W 5 6 1014.5 - 0.6 - - - - - - -
30/03:30am 18.0 WNW 5 7 1014.4 - 0.6 - - - - - - -
30/03:00am 18.3 WNW 6 7 1014.4 - 0.6 Fine Cloudy 20 <0.5 0.5 10 E
30/02:30am 18.2 WNW 7 8 1014.5 - 0.6 - - - - - - -
30/02:00am 18.3 WNW 8 9 1014.7 - 0.6 - - - - - - -
30/01:30am 18.4 WNW 9 11 1014.8 - 0.6 - - - - - - -
30/01:00am 18.5 WNW 9 11 1014.7 - 0.6 - - - - - - -
30/12:30am 18.5 WNW 8 9 1014.9 - 0.6 - - - - - - -
30/12:00am 18.7 WNW 7 9 1015.0 - 0.6 - - - - - - -
 
Date/Time
EST
Temp

°C
Wind Pressure Rain
since 9am
mm
Weather Cloud Vis
km
Sea
Height
m
Swell
Dir
 
Speed
knots
Gust
knots
hPa Trend Height
m
Period
s
Dir
29/11:30pm 18.8 WNW 7 8 1015.2 - 0.6 - - - - - - -
29/11:00pm 18.9 WNW 7 9 1015.3 - 0.6 - - - - - - -
29/10:30pm 19.0 W 7 9 1015.5 - 0.6 - - - - - - -
29/10:00pm 19.1 W 8 10 1015.8 - 0.6 - - - - - - -
29/09:30pm 19.1 W 11 14 1016.1 - 0.6 - - - - - - -
29/09:00pm 19.6 SW 9 15 1015.9 - 0.2 Fine Cloudy 20 1 0.5 10 E
29/08:30pm 19.3 NNE 7 8 1014.8 - 0.0 - - - - - - -
29/08:00pm 19.7 NE 7 8 1014.6 - 0.0 - - - - - - -
29/07:30pm 20.3 NNE 9 11 1014.3 - 0.0 - - - - - - -
29/07:00pm 20.4 N 12 14 1014.2 - 0.0 - - - - - - -
29/06:30pm 20.0 NNE 13 15 1014.1 - 0.0 - - - - - - -
29/06:00pm 20.1 NNE 14 18 1013.9 - 0.0 - - - - - - -
29/05:30pm 20.4 NNE 16 19 1013.7 - 0.0 - - - - - - -
29/05:00pm 20.7 NNE 15 18 1013.6 - 0.0 - - - - - - -
29/04:30pm 20.8 NNE 16 19 1013.9 - 0.0 - - - - - - -
29/04:00pm 21.6 NNE 17 20 1014.0 - 0.0 - - - - - - -
29/03:30pm 21.8 NNE 16 20 1013.9 - 0.0 - - - - - - -
29/03:00pm 21.8 NNE 18 21 1013.9 - 0.0 Smoke Mostly cloudy 20 1 0.5 10 E
29/02:30pm 22.5 NNE 15 20 1013.9 - 0.0 - - - - - - -
29/02:00pm 22.9 NNE 12 14 1014.2 - 0.0 - - - - - - -
29/01:30pm 22.5 NNE 9 11 1014.5 - 0.0 - - - - - - -
29/01:00pm 22.1 NNE 10 13 1014.7 - 0.0 - - - - - - -
29/12:30pm 21.8 NE 10 12 1015.5 - 0.0 - - - - - - -
29/12:00pm 22.3 NNE 11 14 1016.1 - 0.0 - - - - - - -
29/11:30am 21.6 NNE 12 14 1016.3 - 0.0 - - - - - - -
29/11:00am 21.9 NE 9 12 1017.0 - 0.0 - - - - - - -
29/10:30am 22.0 NNE 10 13 1017.8 - 0.0 - - - - - - -
29/10:00am 21.0 NNE 9 11 1018.0 - 0.0 - - - - - - -
29/09:30am 20.4 NE 5 8 1018.5 - 0.0 - - - - - - -
29/09:00am 19.7 CALM 0 0 1018.8 - 0.0 Fine Mostly cloudy 40 <0.5 0.5 10 E
29/08:30am 19.8 E 2 5 1018.8 - 0.0 - - - - - - -
29/08:00am 17.4 WSW 1 4 1018.9 - 0.0 - - - - - - -
29/07:30am 16.8 SSW 4 5 1018.8 - 0.0 - - - - - - -
29/07:00am 16.2 WSW 5 8 1018.8 - 0.0 - - - - - - -
29/06:30am 17.0 N 5 6 1018.5 - 0.0 - - - - - - -
29/06:00am 16.7 N 7 9 1018.3 - 0.0 - - - - - - -
29/05:30am 15.7 N 5 6 1018.3 - 0.0 - - - - - - -
29/05:00am 15.9 W 3 4 1018.4 - 0.0 - - - - - - -
29/04:30am 16.6 W 4 5 1018.6 - 0.0 - - - - - - -
29/04:00am 17.1 N 7 9 1018.6 - 0.0 - - - - - - -
29/03:30am 16.9 N 8 10 1018.5 - 0.0 - - - - - - -
29/03:00am 17.0 NNE 7 7 1018.7 - 0.0 Fine Partly cloudy 30 1 0.5 9 NE
29/02:30am 17.4 N 8 10 1019.1 - 0.0 - - - - - - -
29/02:00am 17.3 N 6 8 1019.3 - 0.0 - - - - - - -
29/01:30am 18.0 N 6 8 1019.5 - 0.0 - - - - - - -
29/01:00am 17.8 N 5 6 1019.6 - 0.0 - - - - - - -
29/12:30am 18.0 NNE 5 7 1019.9 - 0.0 - - - - - - -
29/12:00am 17.9 NNE 6 8 1020.0 - 0.0 - - - - - - -
 
Date/Time
EST
Temp

°C
Wind Pressure Rain
since 9am
mm
Weather Cloud Vis
km
Sea
Height
m
Swell
Dir
 
Speed
knots
Gust
knots
hPa Trend Height
m
Period
s
Dir
28/11:30pm 18.5 NNE 7 8 1019.9 - 0.0 - - - - - - -
28/11:00pm 18.5 NNE 6 7 1020.2 - 0.0 - - - - - - -
28/10:30pm 18.8 NNE 7 9 1020.3 - 0.0 - - - - - - -
28/10:00pm 19.0 N 7 8 1020.6 - 0.0 - - - - - - -
28/09:30pm 18.9 NNE 7 9 1020.6 - 0.0 - - - - - - -
28/09:00pm 18.2 NNE 7 8 1020.4 - 0.0 Fine Cloudy 30 1 1.0 9 E
28/08:30pm 18.0 NNE 7 8 1020.2 - 0.0 - - - - - - -
28/08:00pm 17.7 N 7 8 1020.2 - 0.0 - - - - - - -
28/07:30pm 17.9 N 8 11 1020.0 - 0.0 - - - - - - -
28/07:00pm 18.6 NNE 10 11 1019.8 - 0.0 - - - - - - -
28/06:30pm 18.9 NNE 11 13 1019.8 - 0.0 - - - - - - -
28/06:00pm 19.3 NE 11 12 1019.6 - 0.0 - - - - - - -
28/05:30pm 19.5 NNE 10 11 1019.4 - 0.0 - - - - - - -
28/05:00pm 19.8 NE 10 11 1019.1 - 0.0 - - - - - - -
28/04:30pm 20.4 NNE 8 10 1019.1 - 0.0 - - - - - - -
28/04:00pm 22.0 NNE 9 11 1019.0 - 0.0 - - - - - - -
28/03:30pm 21.3 NNE 8 10 1018.8 - 0.0 - - - - - - -
28/03:00pm 21.7 NE 9 11 1018.8 - 0.0 Fine Partly cloudy 30 1 1.2 9 E
28/02:30pm 21.8 NNE 11 13 1018.8 - 0.0 - - - - - - -
28/02:00pm 21.6 NE 12 15 1018.9 - 0.0 - - - - - - -
28/01:30pm 21.6 NE 10 11 1019.1 - 0.0 - - - - - - -
28/01:00pm 21.8 NE 10 11 1019.3 - 0.0 - - - - - - -
28/12:30pm 22.9 NE 11 13 1019.4 - 0.0 - - - - - - -
28/12:00pm 22.3 NNE 10 11 1019.8 - 0.0 - - - - - - -
28/11:30am 22.8 NNE 10 13 1020.0 - 0.0 - - - - - - -
28/11:00am 21.7 NE 8 9 1020.4 - 0.0 - - - - - - -
28/10:30am 21.4 NE 7 8 1020.6 - 0.0 - - - - - - -
28/10:00am 21.4 NNE 7 10 1020.7 - 0.0 - - - - - - -
28/09:30am 21.8 NNE 9 10 1020.8 - 0.0 - - - - - - -
28/09:00am 21.3 N 10 12 1020.9 - 0.0 Fine Mostly cloudy 30 1 1.0 9 E
28/08:30am 20.2 N 10 11 1020.8 - 0.0 - - - - - - -
28/08:00am 19.4 NW 6 8 1020.9 - 0.0 - - - - - - -
28/07:30am 17.4 N 4 5 1020.6 - 0.0 - - - - - - -
28/07:00am 16.2 NNE 4 5 1020.2 - 0.0 - - - - - - -

Other Formats:

Comma delimited format used in spreadsheet applications
http://www.bom.gov.au/fwo/IDV60701/IDV60701.94933.axf

JavaScript Object Notation format (JSON) in row-major order
http://www.bom.gov.au/fwo/IDV60701/IDV60701.94933.json